createdAt,value
2023-05-13T00:09:11.331Z,93.60
2023-05-13T00:19:10.541Z,94.00
2023-05-13T00:29:10.787Z,94.60
2023-05-13T00:39:11.199Z,94.80
2023-05-13T00:49:10.219Z,94.90
2023-05-13T00:59:09.168Z,95.20
2023-05-13T01:09:08.203Z,95.70
2023-05-13T01:19:07.133Z,96.20
2023-05-13T01:29:06.406Z,96.60
2023-05-13T01:39:06.249Z,97.10
2023-05-13T01:49:08.598Z,97.20
2023-05-13T01:59:08.283Z,97.30
2023-05-13T02:09:07.542Z,97.70
2023-05-13T02:19:06.611Z,97.80
2023-05-13T02:29:06.116Z,98.00
2023-05-13T02:39:05.761Z,98.20
2023-05-13T02:49:05.546Z,98.40
2023-05-13T02:59:04.579Z,98.10
2023-05-13T03:09:03.177Z,98.10
2023-05-13T03:19:02.494Z,97.90
2023-05-13T03:29:01.904Z,97.60
2023-05-13T03:39:01.808Z,97.60
2023-05-13T03:49:02.234Z,97.80
2023-05-13T03:59:01.448Z,97.80
2023-05-13T04:09:00.994Z,97.90
2023-05-13T04:19:01.598Z,98.00
2023-05-13T04:29:00.608Z,98.20
2023-05-13T04:38:59.356Z,98.10
2023-05-13T04:48:58.801Z,98.40
2023-05-13T04:58:58.467Z,98.50
2023-05-13T05:08:58.393Z,98.70
2023-05-13T05:18:57.463Z,99.00
2023-05-13T05:28:56.641Z,99.70
2023-05-13T05:38:57.393Z,99.40
2023-05-13T05:48:56.654Z,98.50
2023-05-13T05:58:55.644Z,98.80
2023-05-13T06:08:54.247Z,97.30
2023-05-13T06:18:53.916Z,96.60
2023-05-13T06:28:53.761Z,95.70
2023-05-13T06:38:53.438Z,95.30
2023-05-13T06:48:53.383Z,94.80
2023-05-13T06:58:52.580Z,93.70
2023-05-13T07:08:51.290Z,92.40
2023-05-13T07:18:50.714Z,92.80
2023-05-13T07:28:49.185Z,92.40
2023-05-13T07:38:48.438Z,92.30
2023-05-13T07:48:48.019Z,90.60
2023-05-13T07:58:47.473Z,89.20
2023-05-13T08:08:46.390Z,79.50
2023-05-13T08:18:45.479Z,75.10
2023-05-13T08:28:44.312Z,75.70
2023-05-13T08:38:43.433Z,67.80
2023-05-13T08:48:42.384Z,69.50
2023-05-13T08:58:41.333Z,66.70
2023-05-13T09:08:40.467Z,62.60
2023-05-13T09:18:39.628Z,65.60
2023-05-13T09:28:38.259Z,63.00
2023-05-13T09:38:38.705Z,66.10
2023-05-13T09:48:37.769Z,60.70
2023-05-13T09:58:36.586Z,58.40
2023-05-13T10:08:35.627Z,59.10
2023-05-13T10:18:34.315Z,59.30
2023-05-13T10:28:33.965Z,57.10
2023-05-13T10:38:32.317Z,57.90
2023-05-13T10:48:31.468Z,56.70
2023-05-13T10:58:30.520Z,54.40
2023-05-13T11:08:29.340Z,56.70
2023-05-13T11:18:28.438Z,54.20
2023-05-13T11:28:27.328Z,53.40
2023-05-13T11:38:26.713Z,53.40
2023-05-13T11:48:25.939Z,52.60
2023-05-13T11:58:24.407Z,49.90
2023-05-13T12:08:23.871Z,48.40
2023-05-13T12:18:23.447Z,49.00
2023-05-13T12:28:22.571Z,49.00
2023-05-13T12:38:21.794Z,50.10
2023-05-13T12:48:20.461Z,50.20
2023-05-13T12:58:19.487Z,50.20
2023-05-13T13:08:18.437Z,49.60
2023-05-13T13:18:17.403Z,50.70
2023-05-13T13:28:16.616Z,51.10
2023-05-13T13:38:15.449Z,50.90
2023-05-13T13:48:14.527Z,52.20
2023-05-13T13:58:14.027Z,50.60
2023-05-13T14:08:12.492Z,50.80
2023-05-13T14:18:11.643Z,49.30
2023-05-13T14:28:11.965Z,49.30
2023-05-13T14:38:10.546Z,48.60
2023-05-13T14:48:11.418Z,48.60
2023-05-13T14:58:10.527Z,49.00
2023-05-13T15:08:09.535Z,49.30
2023-05-13T15:18:08.620Z,49.60
2023-05-13T15:28:07.859Z,50.30
2023-05-13T15:38:06.589Z,56.50
2023-05-13T15:48:05.594Z,62.20
2023-05-13T15:58:04.683Z,66.70
2023-05-13T16:08:03.708Z,66.70
2023-05-13T16:18:03.118Z,68.20
2023-05-13T16:28:01.595Z,67.60
2023-05-13T16:38:00.945Z,69.60
2023-05-13T16:47:59.864Z,68.80
2023-05-13T16:57:58.859Z,66.70
2023-05-13T17:07:57.776Z,66.00
2023-05-13T17:17:56.635Z,64.50
2023-05-13T17:27:55.667Z,61.20
2023-05-13T17:37:54.633Z,62.40
2023-05-13T17:47:53.884Z,60.70
2023-05-13T17:57:54.638Z,60.70
2023-05-13T18:07:53.833Z,61.30
2023-05-13T18:17:52.705Z,68.30
2023-05-13T18:27:51.826Z,73.90
2023-05-13T18:37:51.113Z,75.00
2023-05-13T18:47:50.632Z,74.60
2023-05-13T18:57:50.491Z,74.50
2023-05-13T19:07:50.335Z,75.20
2023-05-13T19:17:49.898Z,75.80
2023-05-13T19:27:48.985Z,77.20
2023-05-13T19:37:47.782Z,77.90
2023-05-13T19:47:46.847Z,79.60
2023-05-13T19:57:47.101Z,81.00
2023-05-13T20:07:45.957Z,81.60
2023-05-13T20:17:44.977Z,82.10
2023-05-13T20:27:43.850Z,82.50
2023-05-13T20:37:43.031Z,82.80
2023-05-13T20:47:41.928Z,83.20
2023-05-13T20:57:41.517Z,83.90
2023-05-13T21:07:40.870Z,84.20
2023-05-13T21:17:43.013Z,84.40
2023-05-13T21:27:45.614Z,84.80
2023-05-13T21:37:47.098Z,85.20
2023-05-13T21:47:46.770Z,85.60
2023-05-13T21:57:45.927Z,86.80
2023-05-13T22:07:45.057Z,88.00
2023-05-13T22:17:44.057Z,89.10
2023-05-13T22:27:43.157Z,89.90
2023-05-13T22:37:41.786Z,90.20
2023-05-13T22:47:40.929Z,90.40
2023-05-13T22:57:42.133Z,90.70
2023-05-13T23:07:41.294Z,91.00
2023-05-13T23:17:43.042Z,91.10
2023-05-13T23:27:42.098Z,91.10
2023-05-13T23:37:40.871Z,91.40
2023-05-13T23:47:40.049Z,91.60
2023-05-13T23:57:38.979Z,91.80
